Terminal Aerodrome Forecast
Issued by NWS Charleston, WV

Current Version | Previous Version | Graphics & Text | Print | Product List | Glossary On
Versions: 1 2 3 4 5 6 7 8 9 10 11 12 13 14 15 16 17 18 19
142
FTUS41 KRLX 071720
TAFEKN
TAF
KEKN 071720Z 0718/0818 31004KT P6SM SCT250
     FM080800 00000KT P6SM SCT040
     FM080900 00000KT P6SM BKN040
     FM081600 21006KT 4SM -SHRASN BR OVC025=

USA.gov is the U.S. government's official web portal to all federal, state and local government web resources and services.